METAR Data

Data at: 1224 UTC 24 May 2022

METAR for:CYQI (Yarmouth Arpt, NS, CA)
Text:CYQI 241200Z 06010KT 15SM FEW220 SCT250 12/03 A3031 RMK CC1CI3 CC TR SLP267
Temperature: 12.0°C ( 54°F)
Dewpoint: 3.0°C ( 37°F) [RH = 54%]
Pressure (altimeter):30.31 inches Hg (1026.5 mb) [Sea level pressure: 1026.7 mb]
Winds:from the ENE (60 degrees) at 12 MPH (10 knots; 5.1 m/s)
Visibility: 15 sm ( 24 km)
Ceiling:at least 12,000 feet AGL
Clouds: few clouds at 22000 feet AGL, scattered clouds at 25000 feet AGL